ACT        NSW        VIC        QLD        SA        WA        TAS        NT        INFO        CALC            by VK5ZD

Past Date/Time: (dd/mm/yyyy hh:mm or blank for current data)    

  Atmospheric Gas Attenuation - ITU Rec 676-11   --------------- dB/100km ---------------
WA Stations Date Time Temp RH % AH g/m3 Dew Point Wind Direction Speed kph Gust kph Barometer mB Rainfall Since 9am 24GHz 47GHz 76GHz 122GHz 134GHz 241GHz
Albany 06/09 09:00 14.7 64 8.06 8.1 22 1013.1 8 18.4 24.8 37.2 97.6 90.3 310.2
Albany Airport 06/09 13:10 14.8 60 7.6 7.1 24 33 1027.3 0 17.4 24.5 36.0 94.1 85.4 292.8
Badgingarra 06/09 13:10 14.2 85 10.38 11.7 24 33 1013.1 0 23.4 28.7 46.9 123.5 122.0 421.2
Barimunya 06/09 13:10 23.3 31 6.48 5.2 11 20 1013.1 0 14.7 20.4 28.2 73.5 63.5 217.3
Barrow Island 06/09 13:10 22.3 57 11.25 13.4 35 44 1015.7 0 24.8 27.7 45.9 120.7 121.2 419.3
Beverley 06/09 09:00 13.8 91 10.84 12.3 11 1013.1 0.8 24.4 29.7 49.2 129.4 129.2 446.1
Bickley 06/09 13:10 13.6 75 8.83 9.3 19 33 1013.1 0 20.1 26.3 40.8 107.2 101.7 350.0
Boolgeeda 06/09 13:10 20.6 32 5.73 3.3 20 32 1013.7 0 13.3 20.0 26.6 69.4 57.5 195.7
Bridgetown 06/09 13:10 14.4 60 7.42 6.7 15 26 1026.4 0 17.0 24.3 35.5 92.7 83.5 286.1
Brookton 06/09 09:00 12.8 94 10.53 11.9 19 1013.1 0.4 23.8 29.5 48.4 127.5 126.4 436.4
Broome 06/09 13:10 28.6 64 17.99 21.1 20 32 1013.3 0 38.5 36.6 69.1 182.9 199.6 693.7
Bunbury 06/09 13:10 16.8 53 7.58 7.2 24 37 1025.6 0 17.3 23.9 35.0 91.4 82.9 284.3
Busselton Airport 06/09 13:10 17.2 46 6.74 5.5 30 39 1025.9 0 15.5 22.6 31.7 82.8 72.3 247.4
Cape Leeuwin 06/09 13:10 16.1 54 7.4 6.8 37 48 1027.8 0 16.9 23.9 34.7 90.6 81.5 279.5
Cape Naturaliste 06/09 13:10 17.5 45 6.71 5.4 28 41 1025.8 0 15.4 22.5 31.5 82.2 71.7 245.3
Carnarvon 06/09 13:10 21.9 52 10.03 11.6 39 52 1018.2 0 22.2 26.0 41.5 109.0 106.5 368.0
Christmas Creek 06/09 13:10 27.9 21 5.68 3.6 20 37 1010.9 0 12.9 18.4 24.2 63.0 52.0 177.3
Christmas Island 06/09 13:10 25.8 73 17.57 20.6 26 37 1017 0 37.8 37.2 70.0 185.1 201.5 699.7
Collie East 06/09 13:10 15.5 55 7.27 6.5 13 30 1013.1 0.2 16.7 23.3 33.9 88.6 79.5 272.6
Coondewanna 06/09 13:10 22.1 35 6.83 5.9 28 39 1013.1 0 15.5 21.1 29.8 77.7 68.3 234.0
Cunderdin Airport 06/09 13:10 18.7 57 9.13 10 32 48 1021.6 0 20.5 25.6 39.8 104.4 99.7 343.7
Curtin 06/09 13:10 33.6 27 9.92 12 20 28 1011.2 0 21.4 22.5 35.3 92.9 90.4 312.9
Dalwallinu 06/09 13:10 18.7 54 8.64 9.2 30 43 1019.6 0 19.4 24.8 37.9 99.2 93.4 321.6
Derby 06/09 13:10 33.5 30 10.97 13.5 15 24 1012.1 0 23.5 24.0 38.8 102.2 101.9 353.1
Dwellingup 06/09 13:10 14.4 64 7.91 7.7 20 41 1024.8 0 18.1 25.1 37.3 97.6 89.6 307.6
Eliwana Airport 06/09 13:10 20.9 33 6.01 4 19 35 1013.1 0 13.8 20.3 27.4 71.5 60.3 205.6
Esperance 06/09 13:10 18.2 73 11.35 13.3 19 26 1023.4 0 25.2 29.5 49.1 129.2 129.9 449.2
Esperance Airport 06/09 13:10 18.2 62 9.64 10.8 22 26 1023.5 0 21.6 26.7 42.1 110.6 107.1 369.3
Eucla 06/09 13:10 18.7 52 8.32 8.7 26 39 1021.5 0 18.8 24.4 36.7 96.2 89.6 308.2
Fitzroy Crossing 06/09 13:10 35.7 19 7.79 8.5 15 19 1010.8 0 16.9 19.4 28.0 73.3 66.9 230.6
Forrest 06/09 13:10 24.6 30 6.75 5.9 1019.9 0 15.2 20.7 28.9 75.3 65.8 225.4
Fortescue Dave Forrest 06/09 11:30 24.1 31 6.78 5.9 17 30 1013.3 0 15.3 20.6 28.9 75.5 66.1 226.6
Garden Island 06/09 13:10 16.4 68 9.49 10.5 32 39 1024.4 0 21.3 27.0 42.5 111.6 107.7 371.2
Geraldton Airport 06/09 13:10 17.6 73 10.95 12.7 32 43 1020.1 0.2 24.4 28.9 47.6 125.3 125.1 432.4
Gerangamete (Cfa) 06/09 15:00 13.5 80 9.36 10.1 13 17 1013.1 0 21.2 27.2 43.0 113.1 109.0 375.5
Giles* 06/09 14:40 30.9 24 7.64 8 24 37 1011.8 0 16.8 20.2 29.2 76.4 69.4 238.9
Gingin Airport 06/09 13:10 16.4 72 10.05 11.3 28 41 1022.8 0 22.5 27.8 44.7 117.5 115.0 396.9
Golden Grove 06/09 13:10 21.2 43 7.97 8.1 22 32 1013.1 0.2 17.9 22.9 34.0 89.1 82.1 282.3
Gooseberry Hill 06/09 13:10 15 73 9.36 10.2 15 24 1013.1 0 21.2 26.8 42.2 111.0 106.9 368.4
Gudai-Darri Mine 06/09 13:10 26.1 21 5.14 2.1 9 20 1013.1 0 11.9 18.1 23.2 60.1 47.9 162.5
Halls Creek 06/09 14:40 34.4 20 7.67 8.2 19 26 1011.2 0 16.8 19.5 28.1 73.5 66.8 230.1
Hopetoun North 06/09 13:10 14.8 98 12.41 14.5 30 43 1023.7 3.6 27.7 32.5 56.0 147.6 151.4 523.8
Hyden 06/09 09:00 14 97 11.7 13.5 9 1013.1 0 26.2 31.1 52.8 139.2 141.3 488.4
Iron Bridge Mine 06/09 13:10 29.1 20 5.78 3.9 26 37 1013.1 0 13.1 18.3 24.2 63.0 52.3 178.5
Jacup 06/09 13:10 12.2 91 9.82 10.8 26 39 1025 1 22.3 28.9 46.3 121.6 118.4 408.2
Jandakot 06/09 13:10 16.4 62 8.65 9.1 26 37 1024 0 19.6 25.6 39.2 102.7 96.7 332.7
Kalbarri 06/09 09:00 18.1 70 10.81 12.7 28 1019.4 8 24.1 28.4 46.7 122.9 122.3 422.7
Kalgoorlie-Boulder 06/09 13:10 12.1 97 10.4 11.6 30 39 1019.2 7.6 23.5 29.7 48.6 127.9 126.3 435.9
Kalumburu 06/09 14:40 34.1 44 16.6 20.1 20 30 1012.5 0 35.1 32.0 58.9 155.6 167.7 583.1
Karijini North 06/09 13:10 25.1 27 6.25 4.8 20 30 1011.4 0 14.2 19.7 26.8 69.9 59.7 203.9
Karratha 06/09 13:10 27.5 30 7.94 8.4 33 43 1013.8 0 17.6 21.4 31.5 82.4 75.7 260.5
Katanning Rs 06/09 13:10 13.9 72 8.63 8.9 28 46 1025.4 0.2 19.6 26.4 40.4 105.9 99.7 342.8
Koolan Island / Koolan Central 06/09 13:10 28.6 61 17.14 20.3 15 22 1013.1 0 36.7 35.1 65.5 173.1 187.6 651.8
Kununurra Airport 06/09 14:40 37.7 25 11.37 14.3 15 28 1011 0 24.1 23.4 38.2 100.5 100.9 350.0
Lake Grace 06/09 13:10 15.7 65 8.7 9.1 30 48 1023.7 0 19.7 25.9 39.7 104.1 98.2 337.8
Lancelin (Defence) 06/09 13:10 16.9 86 12.37 14.5 30 43 1022.2 0 27.5 31.6 54.3 143.0 146.5 507.1
Laverton 06/09 13:10 18.4 62 9.75 11 43 56 1013.3 0 21.8 26.4 42.0 110.4 107.3 370.4
Learmonth 06/09 13:10 26.4 37 9.21 10.5 30 41 1016.7 0 20.3 23.5 36.3 95.2 91.1 314.3
Legendre Island 06/09 13:10 25.2 48 11.17 13.4 35 43 1014.4 0 24.4 26.6 43.9 115.4 115.7 400.4
Leinster 06/09 13:10 18.7 57 9.13 10 24 32 1010 0 20.5 25.2 39.3 103.2 98.8 340.5
Leonora Airport 06/09 13:10 18.6 58 9.23 10.2 33 50 1014.4 0.2 20.7 25.6 39.9 104.8 100.5 346.5
Lombadina 06/09 13:10 29 59 16.95 20.2 19 26 1013.1 0 36.2 34.6 64.3 170.0 184.0 639.3
Mandora 06/09 13:10 30.3 40 12.33 15.2 30 41 1011.6 0 26.5 26.8 45.2 119.1 121.9 422.6
Mandurah 06/09 13:10 17.3 53 7.81 7.6 19 30 1024.4 0 17.7 24.1 35.6 93.0 85.1 292.2
Manjimup 06/09 13:10 14.6 48 6.01 3.7 24 43 1026.9 0.2 14.0 22.2 30.1 78.4 66.0 224.7
Marble Bar 06/09 13:10 31.1 17 5.47 3.2 17 26 1011.5 0 12.4 17.5 22.7 59.1 48.1 163.9
Mardie 06/09 13:10 26.6 31 7.8 8.1 30 43 1014.4 0 17.3 21.5 31.4 82.1 75.0 258.1
Meekatharra 06/09 13:10 19.9 42 7.22 6.6 26 37 1012.6 0 16.4 22.2 31.9 83.4 74.6 256.0
Millendon (Swan Valley) 06/09 13:10 16.5 66 9.27 10.1 15 28 1023.3 0 20.9 26.6 41.5 109.0 104.5 360.2
Morawa Airport 06/09 13:10 21.7 47 8.96 9.9 32 44 1018.6 0 20.0 24.4 37.6 98.6 93.7 323.0
Mount Keith 06/09 13:10 21.5 33 6.22 4.6 19 32 1013.1 0 14.2 20.4 27.9 72.9 62.1 212.1
Mount Magnet Airport 06/09 13:10 20 41 7.08 6.4 33 46 1014.8 0 16.1 22.0 31.4 82.2 73.1 250.5
Munglinup West 06/09 13:10 19.6 63 10.63 12.4 17 28 1023.3 0 23.6 27.8 45.3 119.1 118.0 407.7
Murchison 06/09 09:00 14.9 88 11.22 12.9 15 1017.8 8 25.1 30.1 50.4 132.6 133.2 460.3
Narrogin 06/09 09:00 11.5 89 9.19 9.8 22 1013.1 4 21.0 27.6 43.4 114.1 109.5 377.0
Newdegate 06/09 13:10 15.1 73 9.42 10.3 33 46 1023.3 0.2 21.3 27.2 42.9 112.6 108.5 373.7
Newman Airport 06/09 13:10 23.2 31 6.44 5.2 30 37 1011.6 0 14.6 20.3 28.0 73.2 63.1 215.8
Norseman Airport 06/09 13:10 18.1 48 7.42 6.9 11 15 1021.3 0 16.9 23.2 33.7 88.0 79.3 272.0
North Island 06/09 13:10 18.3 80 12.51 14.8 50 61 1020.9 0.6 27.7 31.3 53.8 141.9 145.7 504.4
Onslow Airport 06/09 13:10 25.9 33 7.99 8.4 32 44 1016.2 0 17.8 21.9 32.3 84.6 77.9 268.0
Paraburdoo 06/09 13:10 21.8 32 6.14 4.4 24 33 1013.6 0 14.1 20.3 27.6 71.9 61.0 208.4
Pardoo 06/09 09:00 26 58 14.12 17.2 24 1015.4 0 30.5 31.1 55.0 145.1 152.3 528.5
Paynes Find 06/09 09:00 15.6 64 8.51 8.9 4 1017.6 1 19.3 25.4 38.7 101.6 95.3 328.0
Pearce 06/09 13:10 16.4 69 9.63 10.7 26 33 1022.7 0 21.6 27.1 43.0 113.0 109.4 377.2
Perth 06/09 13:10 17.1 59 8.59 9 17 30 1023.7 0 19.4 25.3 38.6 101.1 95.0 327.0
Perth Airport 06/09 13:10 16.8 62 8.86 9.5 24 39 1023.4 0 20.0 25.8 39.8 104.3 98.8 340.3
Port Hedland 06/09 13:10 29.1 36 10.4 12.5 33 44 1012.6 0 22.6 24.3 39.0 102.6 101.1 349.8
Portable Btsa (Dfes) 06/09 13:00 22.7 45 9.09 10.4 17 20 1013.1 0 20.2 24.2 37.4 98.1 93.7 323.0
Portable Btsd (Dfes) 06/09 13:00 13.8 73 8.7 9.1 15 19 1013.1 0.6 19.8 26.1 40.2 105.5 99.7 343.1
Portable Btse (Dfes) 06/09 06:40 19.5 70 11.75 13.9 0 2 1013.1 0 26.0 29.3 49.4 130.2 132.1 457.2
Portable Btsf (Dfes) 06/09 12:00 24.3 28 6.2 4.9 22 26 1013.1 0 14.1 19.8 27.0 70.3 59.8 204.3
Portable Btsh (Dfes) 06/09 13:00 22.2 33 6.48 5.3 11 19 1013.1 0 14.8 20.6 28.6 74.5 64.4 220.2
Portable Btsj (Dfes) 06/09 13:00 18.3 54 8.44 8.9 17 26 1013.1 0 19.0 24.4 37.0 97.1 90.9 312.8
Portable Btsl (Dfes) 06/09 13:00 22.3 31 6.12 4.5 15 20 1013.1 0 14.0 20.1 27.3 71.3 60.4 206.3
Portable Btsm (Dfes) 06/09 13:00 21 33 6.04 4.3 15 22 1013.1 0 13.9 20.3 27.5 71.7 60.5 206.5
Portable Btsn (Dfes) 06/09 13:00 21.3 35 6.52 5.4 26 30 1013.1 0 14.9 20.9 29.0 75.7 65.5 224.2
Portable Btso (Dfes) 06/09 13:00 15.5 51 6.74 5.5 13 17 1013.1 0 15.6 22.6 31.9 83.4 73.1 250.0
Ravensthorpe 06/09 09:00 14.1 77 9.35 10.1 9 1022.6 0 21.2 27.4 43.1 113.2 108.8 375.0
Rocky Gully South 06/09 13:10 12.9 63 7.1 6 26 37 1013.1 0 16.4 23.8 34.3 89.8 80.0 274.0
Roebourne Airport 06/09 13:10 28.4 25 6.95 6.5 32 43 1013.7 0 15.5 19.9 28.0 73.1 64.5 221.4
Rottnest Island 06/09 13:10 15.9 70 9.48 10.4 43 52 1023.5 0 21.3 27.1 42.7 112.1 108.2 372.8
Salmon Gums Rs 06/09 13:10 18.8 56 9.02 9.8 19 28 1013.1 0 20.2 25.1 39.0 102.3 97.5 336.0
Shannon 06/09 13:10 14.1 59 7.16 6.2 22 30 1013.1 0 16.5 23.5 34.0 89.1 79.6 272.6
Shark Bay Airport 06/09 13:10 22.9 56 11.44 13.7 26 37 1018.3 0 25.1 27.9 46.4 122.0 123.0 425.5
Solomon Airport 06/09 13:10 22 29 5.63 3.2 26 39 1013.1 0 13.0 19.5 25.9 67.3 55.4 188.6
Southern Cross Airport 06/09 13:10 18.1 47 7.26 6.6 35 52 1019.4 0 16.6 22.9 33.0 86.3 77.3 264.9
Swanbourne 06/09 13:10 16.3 97 13.46 15.8 19 32 1013.1 0 29.9 33.5 59.1 156.0 162.8 563.6
Telfer 06/09 13:10 33.2 15 5.4 3.1 41 61 1009.6 0 12.2 17.0 21.9 57.0 46.2 157.4
Thevenard Island 06/09 13:10 23.4 50 10.51 12.4 35 50 1016.1 0 23.1 26.2 42.4 111.5 110.3 381.2
Troughton Island 06/09 14:40 30.1 67 20.43 23.3 20 24 1014.1 0 43.4 40.3 78.7 208.2 231.1 803.3
Truscott 06/09 14:40 30.8 55 17.42 20.7 17 24 1013 0 37.1 34.7 64.8 171.3 186.1 646.8
Walpole North 06/09 13:10 14.3 62 7.62 7.1 24 39 1027.7 0 17.5 24.7 36.3 95.0 86.2 295.6
Wandering 06/09 13:10 13.5 80 9.36 10.1 22 33 1013.1 0.4 21.2 27.2 43.0 113.1 109.0 375.5
Warburton 06/09 14:40 24.6 49 11.03 13.2 19 24 1011.3 0.4 24.2 26.5 43.5 114.6 114.6 396.4
West Angelas 06/09 13:10 19.9 37 6.36 4.8 19 39 1013.6 0 14.6 21.0 29.0 75.6 64.9 221.8
West Musgrave Airport 06/09 13:10 28.7 26 7.35 7.3 32 46 1013.1 0 16.3 20.4 29.1 76.1 68.4 234.9
Wiluna Airport 06/09 13:10 22.3 31 6.12 4.4 24 30 1010.6 0 14.0 20.0 27.3 71.1 60.3 205.8
Windy Harbour 06/09 09:00 14.6 59 7.38 6.7 28 1027.2 13 16.9 24.3 35.2 92.1 82.8 283.8
Witchcliffe West 06/09 13:10 15 56 7.18 6.3 30 44 1027.1 0 16.5 23.8 34.3 89.6 79.9 273.6
Wongan Hills 06/09 09:00 13.8 85 10.13 11.4 37 1021.1 0 22.9 28.7 46.5 122.2 119.9 413.7
Wyndham Airport 06/09 14:40 36.8 27 11.72 14.7 20 35 1011.4 0 24.9 24.1 39.7 104.7 105.8 367.0
Yampi Sound (Defence) 06/09 13:10 34.8 25 9.79 11.9 17 26 1015.6 0 21.0 22.2 34.6 90.8 88.1 304.7
York 06/09 09:00 13.3 97 11.21 12.8 9 1023 0.9 25.2 30.9 51.6 135.9 136.5 471.3

Last Refresh: 06-Sep-2026 14:52:17

Bureau of Meteorology